createdAt,value
2022-12-01T00:01:10.249Z,28.70
2022-12-01T00:03:37.327Z,30.42
2022-12-01T00:06:05.687Z,31.35
2022-12-01T00:08:34.034Z,31.13
2022-12-01T00:11:14.028Z,29.77
2022-12-01T00:13:40.573Z,30.13
2022-12-01T00:16:16.158Z,32.63
2022-12-01T00:18:43.073Z,31.17
2022-12-01T00:21:21.287Z,32.03
2022-12-01T00:23:50.115Z,31.73
2022-12-01T00:26:18.118Z,30.80
2022-12-01T00:28:49.081Z,29.77
2022-12-01T00:31:15.792Z,33.03
2022-12-01T00:33:42.398Z,31.03
2022-12-01T00:36:09.359Z,33.13
2022-12-01T00:38:35.946Z,32.03
2022-12-01T00:41:03.480Z,30.57
2022-12-01T00:43:30.252Z,31.20
2022-12-01T00:45:57.122Z,31.75
2022-12-01T00:48:24.181Z,32.70
2022-12-01T00:50:52.398Z,31.70
2022-12-01T00:53:19.116Z,30.60
2022-12-01T00:55:45.809Z,33.45
2022-12-01T00:58:12.626Z,34.00
2022-12-01T01:00:39.175Z,35.58
2022-12-01T01:03:07.129Z,34.05
2022-12-01T01:05:41.971Z,34.13
2022-12-01T01:08:11.311Z,35.22
2022-12-01T01:10:39.523Z,32.05
2022-12-01T01:13:06.463Z,30.60
2022-12-01T01:15:33.484Z,33.75
2022-12-01T01:18:00.132Z,33.10
2022-12-01T01:20:26.751Z,33.50
2022-12-01T01:22:53.298Z,33.47
2022-12-01T01:25:19.853Z,32.90
2022-12-01T01:27:46.395Z,32.35
2022-12-01T01:30:13.430Z,33.33
2022-12-01T01:32:40.060Z,34.05
2022-12-01T01:35:07.243Z,33.33
2022-12-01T01:37:33.911Z,33.05
2022-12-01T01:40:00.580Z,34.13
2022-12-01T01:42:27.159Z,34.20
2022-12-01T01:44:58.439Z,34.03
2022-12-01T01:47:29.898Z,33.83
2022-12-01T01:49:59.394Z,34.95
2022-12-01T01:52:27.947Z,34.10
2022-12-01T01:54:56.068Z,35.28
2022-12-01T01:57:31.602Z,34.63
2022-12-01T02:00:12.298Z,37.40
2022-12-01T02:02:43.827Z,35.03
2022-12-01T02:05:19.206Z,35.83
2022-12-01T02:07:47.818Z,37.72
2022-12-01T02:10:22.220Z,36.00
2022-12-01T02:13:03.322Z,36.78
2022-12-01T02:15:39.101Z,37.08
2022-12-01T02:18:22.851Z,36.90
2022-12-01T02:20:55.287Z,37.33
2022-12-01T02:23:40.903Z,38.03
2022-12-01T02:26:35.260Z,38.00
2022-12-01T02:29:09.526Z,39.55
2022-12-01T02:31:50.639Z,35.47
2022-12-01T02:34:43.331Z,37.60
2022-12-01T02:37:29.135Z,39.08
2022-12-01T02:40:16.900Z,39.33
2022-12-01T02:43:00.150Z,39.53
2022-12-01T02:45:30.651Z,41.50
2022-12-01T02:48:01.785Z,39.95
2022-12-01T02:50:31.646Z,40.92
2022-12-01T02:52:59.802Z,39.40
2022-12-01T02:55:29.369Z,41.13
2022-12-01T02:57:55.950Z,39.28
2022-12-01T03:00:22.655Z,37.57
2022-12-01T03:03:22.547Z,39.80
2022-12-01T03:05:58.328Z,40.70
2022-12-01T03:08:35.325Z,39.03
2022-12-01T03:11:02.919Z,40.37
2022-12-01T03:13:48.033Z,40.25
2022-12-01T03:16:24.522Z,41.40
2022-12-01T03:19:07.795Z,40.45
2022-12-01T03:21:46.464Z,41.47
2022-12-01T03:24:22.511Z,41.03
2022-12-01T03:26:56.772Z,42.50
2022-12-01T03:29:31.396Z,43.25
2022-12-01T03:32:07.523Z,42.65
2022-12-01T03:34:51.215Z,43.33
2022-12-01T03:37:24.660Z,40.40
2022-12-01T03:40:00.009Z,42.03
2022-12-01T03:43:10.832Z,41.35
2022-12-01T03:45:51.080Z,39.00
2022-12-01T03:48:18.480Z,40.88
2022-12-01T03:51:08.835Z,40.38
2022-12-01T03:53:52.683Z,38.47
2022-12-01T03:56:26.227Z,37.90
2022-12-01T03:58:57.495Z,40.83
2022-12-01T04:01:26.369Z,38.00
2022-12-01T04:03:53.002Z,40.92
2022-12-01T04:06:19.576Z,40.83
2022-12-01T04:08:46.173Z,41.42
2022-12-01T04:11:32.975Z,37.97
2022-12-01T04:13:59.852Z,41.78
2022-12-01T04:16:26.494Z,42.40
2022-12-01T04:18:53.103Z,39.67
2022-12-01T04:21:19.701Z,42.27
2022-12-01T04:24:01.542Z,42.25
2022-12-01T04:26:30.056Z,40.92
2022-12-01T04:28:56.658Z,41.28
2022-12-01T04:31:23.362Z,43.10
2022-12-01T04:33:50.054Z,41.93
2022-12-01T04:36:16.689Z,41.72
2022-12-01T04:38:43.278Z,41.78
2022-12-01T04:41:11.653Z,44.38
2022-12-01T04:43:38.824Z,44.87
2022-12-01T04:46:06.354Z,42.75
2022-12-01T04:48:35.864Z,42.63
2022-12-01T04:51:04.440Z,44.50
2022-12-01T04:53:31.816Z,45.47
2022-12-01T04:56:00.696Z,44.00
2022-12-01T04:58:28.456Z,44.70
2022-12-01T05:00:55.077Z,47.08
2022-12-01T05:03:21.804Z,44.15
2022-12-01T05:05:48.417Z,43.58
2022-12-01T05:08:14.962Z,44.05
2022-12-01T05:10:41.645Z,45.58
2022-12-01T05:13:08.887Z,46.97
2022-12-01T05:15:35.528Z,44.10
2022-12-01T05:18:02.107Z,45.55
2022-12-01T05:20:47.937Z,44.90
2022-12-01T05:23:17.080Z,43.80
2022-12-01T05:25:44.017Z,45.97
2022-12-01T05:28:12.835Z,46.28
2022-12-01T05:30:39.521Z,45.65
2022-12-01T05:33:06.549Z,46.13
2022-12-01T05:35:34.314Z,45.30
2022-12-01T05:38:06.064Z,47.17
2022-12-01T05:40:34.679Z,46.05
2022-12-01T05:43:01.427Z,44.90
2022-12-01T05:45:28.464Z,45.63
2022-12-01T05:47:56.499Z,47.00
2022-12-01T05:50:24.268Z,46.33
2022-12-01T05:52:50.908Z,44.78
2022-12-01T05:55:18.046Z,45.67
2022-12-01T05:57:45.207Z,46.60
2022-12-01T06:00:14.005Z,47.73
2022-12-01T06:02:42.793Z,45.43
2022-12-01T06:05:09.809Z,45.63
2022-12-01T06:07:36.768Z,46.72
2022-12-01T06:10:04.407Z,46.95
2022-12-01T06:12:32.043Z,47.53
2022-12-01T06:14:58.912Z,46.25
2022-12-01T06:17:25.568Z,47.42
2022-12-01T06:19:52.542Z,45.95
2022-12-01T06:22:19.166Z,48.53
2022-12-01T06:24:46.522Z,47.25
2022-12-01T06:27:14.773Z,47.78
2022-12-01T06:29:42.367Z,48.63
2022-12-01T06:32:09.351Z,49.77
2022-12-01T06:34:36.703Z,46.67
2022-12-01T06:37:03.442Z,47.22
2022-12-01T06:39:30.446Z,45.35
2022-12-01T06:41:57.538Z,47.07
2022-12-01T06:44:24.608Z,46.03
2022-12-01T06:46:53.004Z,46.50
2022-12-01T06:49:20.356Z,46.70
2022-12-01T06:51:47.007Z,47.08
2022-12-01T06:54:15.010Z,48.53
2022-12-01T06:56:46.969Z,47.50
2022-12-01T06:59:14.147Z,46.57
2022-12-01T07:01:41.464Z,46.40
2022-12-01T07:04:14.093Z,46.50
2022-12-01T07:06:40.836Z,46.53
2022-12-01T07:09:08.006Z,46.50
2022-12-01T07:11:36.418Z,45.28
2022-12-01T07:14:04.397Z,45.60
2022-12-01T07:16:31.504Z,45.72
2022-12-01T07:19:00.184Z,45.73
2022-12-01T07:21:26.791Z,44.23
2022-12-01T07:23:54.557Z,46.20
2022-12-01T07:26:21.882Z,45.53
2022-12-01T07:28:48.912Z,45.93
2022-12-01T07:31:18.272Z,45.95
2022-12-01T07:33:46.754Z,45.28
2022-12-01T07:36:14.527Z,45.60
2022-12-01T07:38:41.942Z,45.37
2022-12-01T07:41:14.078Z,44.37
2022-12-01T07:43:41.569Z,45.47
2022-12-01T07:46:24.475Z,46.47
2022-12-01T07:48:52.509Z,45.80
2022-12-01T07:51:19.749Z,44.67
2022-12-01T07:53:50.058Z,45.63
2022-12-01T07:56:18.751Z,44.73
2022-12-01T07:58:45.719Z,42.43
2022-12-01T08:01:15.920Z,43.60
2022-12-01T08:03:43.168Z,43.83
2022-12-01T08:06:10.847Z,43.73
2022-12-01T08:08:40.696Z,44.13
2022-12-01T08:11:30.497Z,43.70
2022-12-01T08:13:57.053Z,44.63
2022-12-01T08:16:26.382Z,44.10
2022-12-01T08:18:53.454Z,43.25
2022-12-01T08:21:22.226Z,42.78
2022-12-01T08:23:52.028Z,44.97
2022-12-01T08:26:20.339Z,43.80
2022-12-01T08:28:48.991Z,44.15
2022-12-01T08:31:19.559Z,43.75
2022-12-01T08:33:47.310Z,44.03
2022-12-01T08:36:15.730Z,42.40
2022-12-01T08:38:48.447Z,43.60
2022-12-01T08:41:16.538Z,44.47
2022-12-01T08:44:01.265Z,41.85
2022-12-01T08:46:34.363Z,43.87
2022-12-01T08:49:01.670Z,42.97
2022-12-01T08:51:28.694Z,41.60
2022-12-01T08:53:57.435Z,42.83
2022-12-01T08:56:32.091Z,42.70
2022-12-01T08:59:00.208Z,40.75
2022-12-01T09:01:27.555Z,43.57
2022-12-01T09:04:06.850Z,41.38
2022-12-01T09:06:40.447Z,42.33
2022-12-01T09:09:09.231Z,40.80
2022-12-01T09:11:35.899Z,41.20
2022-12-01T09:14:02.476Z,38.33
2022-12-01T09:16:30.526Z,40.05
2022-12-01T09:18:57.492Z,38.72
2022-12-01T09:21:28.295Z,39.95
2022-12-01T09:23:55.011Z,38.35
2022-12-01T09:26:23.172Z,37.70
2022-12-01T09:28:54.063Z,39.40
2022-12-01T09:31:23.394Z,36.58
2022-12-01T09:33:59.611Z,36.03
2022-12-01T09:36:26.525Z,36.28
2022-12-01T09:38:53.733Z,37.07
2022-12-01T09:41:26.034Z,35.40
2022-12-01T09:43:59.042Z,36.47
2022-12-01T09:46:33.069Z,35.03
2022-12-01T09:49:03.131Z,34.38
2022-12-01T09:51:31.356Z,35.50
2022-12-01T09:54:01.001Z,34.83
2022-12-01T09:56:31.977Z,34.92
2022-12-01T09:59:02.064Z,33.97
2022-12-01T10:01:43.093Z,34.00
2022-12-01T10:04:30.823Z,34.35
2022-12-01T10:07:04.882Z,32.83
2022-12-01T10:09:45.962Z,33.13
2022-12-01T10:12:18.512Z,33.95
2022-12-01T10:14:47.732Z,32.00
2022-12-01T10:17:49.486Z,33.60
2022-12-01T10:20:29.317Z,32.83
2022-12-01T10:23:18.551Z,33.65
2022-12-01T10:26:15.418Z,33.20
2022-12-01T10:29:00.862Z,31.38
2022-12-01T10:31:36.436Z,32.75
2022-12-01T10:34:17.931Z,32.97
2022-12-01T10:36:45.468Z,32.47
2022-12-01T10:39:20.265Z,32.10
2022-12-01T10:41:48.907Z,32.88
2022-12-01T10:44:17.131Z,33.50
2022-12-01T10:46:49.504Z,30.33
2022-12-01T10:49:19.698Z,31.70
2022-12-01T10:51:57.571Z,31.73
2022-12-01T10:54:33.068Z,30.90
2022-12-01T10:57:00.738Z,31.33
2022-12-01T10:59:43.378Z,32.53
2022-12-01T11:02:20.459Z,30.50
2022-12-01T11:05:06.351Z,30.27
2022-12-01T11:07:44.056Z,30.88
2022-12-01T11:10:16.727Z,31.80
2022-12-01T11:12:52.268Z,31.48
2022-12-01T11:15:33.102Z,33.28
2022-12-01T11:18:03.577Z,31.80
2022-12-01T11:20:36.879Z,30.80
2022-12-01T11:23:28.415Z,32.63
2022-12-01T11:26:07.291Z,30.42
2022-12-01T11:28:35.893Z,30.33
2022-12-01T11:31:11.129Z,31.90
2022-12-01T11:33:52.242Z,31.45
2022-12-01T11:36:31.894Z,30.27
2022-12-01T11:39:00.943Z,31.20
2022-12-01T11:41:32.858Z,29.20
2022-12-01T11:44:04.114Z,28.55
2022-12-01T11:46:45.973Z,27.42
2022-12-01T11:49:25.290Z,28.95
2022-12-01T11:51:51.915Z,29.20
2022-12-01T11:54:26.336Z,28.75
2022-12-01T11:57:25.215Z,28.27
2022-12-01T11:59:40.844Z,28.38
2022-12-01T12:02:22.180Z,30.20
2022-12-01T12:05:29.785Z,27.60
2022-12-01T12:08:14.245Z,29.17
2022-12-01T12:11:10.532Z,28.23
2022-12-01T12:13:51.761Z,30.40
2022-12-01T12:16:46.344Z,30.88
2022-12-01T12:22:57.788Z,28.05
2022-12-01T12:25:39.719Z,30.20
2022-12-01T12:28:43.964Z,28.98
2022-12-01T12:31:25.035Z,28.27
2022-12-01T12:33:58.793Z,30.23
2022-12-01T12:36:44.126Z,29.70
2022-12-01T12:39:39.714Z,30.30
2022-12-01T12:42:21.852Z,28.17
2022-12-01T12:45:22.760Z,30.35
2022-12-01T12:48:08.161Z,29.30
2022-12-01T12:50:59.789Z,28.65
2022-12-01T12:53:34.943Z,28.23
2022-12-01T12:56:05.919Z,30.02
2022-12-01T12:58:47.374Z,28.35
2022-12-01T13:01:27.232Z,28.48
2022-12-01T13:04:41.505Z,29.30
2022-12-01T13:07:20.850Z,29.15
2022-12-01T13:10:00.641Z,28.75
2022-12-01T13:12:31.467Z,30.08
2022-12-01T13:15:19.466Z,28.80
2022-12-01T13:18:34.661Z,30.90
2022-12-01T13:21:04.276Z,30.88
2022-12-01T13:23:32.538Z,28.50
2022-12-01T13:26:04.061Z,30.38
2022-12-01T13:28:41.378Z,30.40
2022-12-01T13:31:11.634Z,29.80
2022-12-01T13:33:46.065Z,29.17
2022-12-01T13:39:22.428Z,30.35
2022-12-01T13:42:06.164Z,31.38
2022-12-01T13:44:42.777Z,30.67
2022-12-01T13:47:12.534Z,31.38
2022-12-01T13:49:52.328Z,31.45
2022-12-01T13:52:22.009Z,31.58
2022-12-01T13:55:07.332Z,32.20
2022-12-01T13:57:35.655Z,32.08
2022-12-01T14:00:23.579Z,31.52
2022-12-01T14:03:12.382Z,31.63
2022-12-01T14:05:41.955Z,32.90
2022-12-01T14:08:25.023Z,30.40
2022-12-01T14:11:02.025Z,30.83
2022-12-01T14:13:30.019Z,29.95
2022-12-01T14:16:02.321Z,30.35
2022-12-01T14:18:52.316Z,28.70
2022-12-01T14:21:42.482Z,29.35
2022-12-01T14:24:22.143Z,28.48
2022-12-01T14:26:49.634Z,30.23
2022-12-01T14:29:34.395Z,29.02
2022-12-01T14:32:01.008Z,30.33
2022-12-01T14:34:31.862Z,30.75
2022-12-01T14:37:12.042Z,29.55
2022-12-01T14:39:42.592Z,29.08
2022-12-01T14:42:49.866Z,31.70
2022-12-01T14:45:22.555Z,30.15
2022-12-01T14:48:18.513Z,30.07
2022-12-01T14:51:07.899Z,29.55
2022-12-01T14:53:39.627Z,30.25
2022-12-01T14:56:14.398Z,27.23
2022-12-01T14:58:51.990Z,27.20
2022-12-01T15:01:20.800Z,25.50
2022-12-01T15:03:55.457Z,25.70
2022-12-01T15:06:24.412Z,25.40
2022-12-01T15:12:00.097Z,25.40
2022-12-01T15:14:35.660Z,24.60
2022-12-01T15:17:05.234Z,24.47
2022-12-01T15:19:38.984Z,22.33
2022-12-01T15:22:16.760Z,24.13
2022-12-01T15:24:44.203Z,23.27
2022-12-01T15:27:32.405Z,24.20
2022-12-01T15:30:04.182Z,24.90
2022-12-01T15:32:34.375Z,24.47
2022-12-01T15:35:03.387Z,22.43
2022-12-01T15:37:43.181Z,23.53
2022-12-01T15:43:21.185Z,24.53
2022-12-01T15:45:56.243Z,24.03
2022-12-01T15:48:34.555Z,24.57
2022-12-01T15:51:07.733Z,24.60
2022-12-01T15:53:39.676Z,25.13
2022-12-01T15:56:09.694Z,24.60
2022-12-01T15:58:42.815Z,24.00
2022-12-01T16:01:18.905Z,25.17
2022-12-01T16:04:06.366Z,23.93
2022-12-01T16:06:39.648Z,24.33
2022-12-01T16:09:35.259Z,24.90
2022-12-01T16:12:07.144Z,25.20
2022-12-01T16:15:41.385Z,23.63
2022-12-01T16:18:36.154Z,24.40
2022-12-01T16:21:15.864Z,23.90
2022-12-01T16:23:42.804Z,23.47
2022-12-01T16:26:09.641Z,24.20
2022-12-01T16:28:36.587Z,24.33
2022-12-01T16:31:12.625Z,23.23
2022-12-01T16:33:41.956Z,26.20
2022-12-01T16:36:08.704Z,25.73
2022-12-01T16:38:35.304Z,25.87
2022-12-01T16:41:13.978Z,26.77
2022-12-01T16:43:50.215Z,27.13
2022-12-01T16:46:26.078Z,27.60
2022-12-01T16:48:52.925Z,26.67
2022-12-01T16:51:29.520Z,25.73
2022-12-01T16:54:07.358Z,26.20
2022-12-01T16:56:34.031Z,24.30
2022-12-01T16:59:01.656Z,25.00
2022-12-01T17:01:29.293Z,24.00
2022-12-01T17:03:56.125Z,24.30
2022-12-01T17:06:22.786Z,24.10
2022-12-01T17:08:49.470Z,24.30
2022-12-01T17:11:16.204Z,25.37
2022-12-01T17:13:42.900Z,24.57
2022-12-01T17:16:16.694Z,22.33
2022-12-01T17:18:44.950Z,21.63
2022-12-01T17:21:11.955Z,20.90
2022-12-01T17:23:39.747Z,21.03
2022-12-01T17:26:12.025Z,21.50
2022-12-01T17:28:39.639Z,20.57
2022-12-01T17:31:07.435Z,20.70
2022-12-01T17:33:35.030Z,20.90
2022-12-01T17:36:03.460Z,22.53
2022-12-01T17:38:30.263Z,21.90
2022-12-01T17:41:24.782Z,21.03
2022-12-01T17:43:51.812Z,19.57
2022-12-01T17:46:18.843Z,22.20
2022-12-01T17:48:46.492Z,21.33
2022-12-01T17:51:14.377Z,23.40
2022-12-01T17:53:50.403Z,21.27
2022-12-01T17:56:17.475Z,20.10
2022-12-01T17:58:44.274Z,19.70
2022-12-01T18:01:17.199Z,19.00
2022-12-01T18:03:44.184Z,18.30
2022-12-01T18:06:11.972Z,18.30
2022-12-01T18:08:39.780Z,17.70
2022-12-01T18:11:10.100Z,17.63
2022-12-01T18:13:42.380Z,18.00
2022-12-01T18:16:11.756Z,17.70
2022-12-01T18:18:38.509Z,18.87
2022-12-01T18:21:11.616Z,18.77
2022-12-01T18:23:39.083Z,17.27
2022-12-01T18:26:16.091Z,16.30
2022-12-01T18:28:44.036Z,17.93
2022-12-01T18:31:14.323Z,17.00
2022-12-01T18:33:43.347Z,17.53
2022-12-01T18:36:13.770Z,16.50
2022-12-01T18:38:41.540Z,17.77
2022-12-01T18:41:08.995Z,15.80
2022-12-01T18:43:36.760Z,16.97
2022-12-01T18:46:05.606Z,17.77
2022-12-01T18:48:34.265Z,16.13
2022-12-01T18:51:06.291Z,16.57
2022-12-01T18:53:34.153Z,17.40
2022-12-01T18:56:06.642Z,16.70
2022-12-01T18:58:34.502Z,16.97
2022-12-01T19:01:02.617Z,17.37
2022-12-01T19:03:33.205Z,17.40
2022-12-01T19:06:00.148Z,17.57
2022-12-01T19:08:27.091Z,17.80
2022-12-01T19:11:02.357Z,16.63
2022-12-01T19:13:31.159Z,16.00
2022-12-01T19:15:58.623Z,15.73
2022-12-01T19:18:25.933Z,15.33
2022-12-01T19:20:52.881Z,15.07
2022-12-01T19:23:19.689Z,15.43
2022-12-01T19:25:46.664Z,15.50
2022-12-01T19:28:13.513Z,15.20
2022-12-01T19:30:45.359Z,13.73
2022-12-01T19:33:14.971Z,13.90
2022-12-01T19:35:41.920Z,12.50
2022-12-01T19:38:08.758Z,13.53
2022-12-01T19:40:38.585Z,13.30
2022-12-01T19:43:05.927Z,12.80
2022-12-01T19:45:33.787Z,12.63
2022-12-01T19:48:00.842Z,11.87
2022-12-01T19:50:27.896Z,12.33
2022-12-01T19:52:54.969Z,12.83
2022-12-01T19:55:22.090Z,12.73
2022-12-01T19:57:52.316Z,12.70
2022-12-01T20:00:21.882Z,13.27
2022-12-01T20:02:49.174Z,13.90
2022-12-01T20:05:16.206Z,15.37
2022-12-01T20:07:42.929Z,14.23
2022-12-01T20:10:10.445Z,13.33
2022-12-01T20:12:37.133Z,14.80
2022-12-01T20:15:08.266Z,14.13
2022-12-01T20:17:36.528Z,14.27
2022-12-01T20:20:04.486Z,14.37
2022-12-01T20:22:32.562Z,15.90
2022-12-01T20:24:59.440Z,15.77
2022-12-01T20:27:27.182Z,15.07
2022-12-01T20:29:54.210Z,14.70
2022-12-01T20:32:23.705Z,13.83
2022-12-01T20:34:51.216Z,14.13
2022-12-01T20:37:18.213Z,14.70
2022-12-01T20:39:44.857Z,15.80
2022-12-01T20:42:11.477Z,14.73
2022-12-01T20:44:39.903Z,14.53
2022-12-01T20:47:06.666Z,15.17
2022-12-01T20:49:33.282Z,15.37
2022-12-01T20:51:59.810Z,16.60
2022-12-01T20:54:28.287Z,17.00
2022-12-01T20:56:56.505Z,18.17
2022-12-01T20:59:23.454Z,17.73
2022-12-01T21:01:50.398Z,19.03
2022-12-01T21:04:18.105Z,19.17
2022-12-01T21:06:45.621Z,19.30
2022-12-01T21:09:13.392Z,20.17
2022-12-01T21:12:08.910Z,20.37
2022-12-01T21:15:01.749Z,19.37
2022-12-01T21:17:33.304Z,20.93
2022-12-01T21:20:28.099Z,20.03
2022-12-01T21:23:12.388Z,20.17
2022-12-01T21:25:40.640Z,19.43
2022-12-01T21:28:20.679Z,19.93
2022-12-01T21:30:48.382Z,18.87
2022-12-01T21:33:36.790Z,21.27
2022-12-01T21:36:16.835Z,20.40
2022-12-01T21:38:44.365Z,20.53
2022-12-01T21:41:29.891Z,22.63
2022-12-01T21:44:02.430Z,21.07
2022-12-01T21:46:29.926Z,20.70
2022-12-01T21:48:57.806Z,21.23
2022-12-01T21:51:25.284Z,19.70
2022-12-01T21:53:55.570Z,19.83
2022-12-01T21:56:25.374Z,21.53
2022-12-01T21:58:52.963Z,20.93
2022-12-01T22:01:31.257Z,20.20
2022-12-01T22:04:09.678Z,22.73
2022-12-01T22:06:40.818Z,23.10
2022-12-01T22:09:22.125Z,22.20
2022-12-01T22:11:55.576Z,20.73
2022-12-01T22:14:24.778Z,20.00
2022-12-01T22:17:18.395Z,21.40
2022-12-01T22:19:52.120Z,23.03
2022-12-01T22:22:29.405Z,21.53
2022-12-01T22:25:20.436Z,22.07
2022-12-01T22:27:47.014Z,23.13
2022-12-01T22:30:20.543Z,21.53
2022-12-01T22:32:56.604Z,22.90
2022-12-01T22:35:31.408Z,22.17
2022-12-01T22:38:20.165Z,22.60
2022-12-01T22:40:58.215Z,21.83
2022-12-01T22:43:28.433Z,20.90
2022-12-01T22:46:17.177Z,23.60
2022-12-01T22:49:03.890Z,22.00
2022-12-01T22:51:35.464Z,22.93
2022-12-01T22:54:14.305Z,22.40
2022-12-01T22:56:55.685Z,22.63
2022-12-01T22:59:27.023Z,22.10
2022-12-01T23:01:59.252Z,23.17
2022-12-01T23:04:44.441Z,22.50
2022-12-01T23:07:32.096Z,22.03
2022-12-01T23:10:20.087Z,22.53
2022-12-01T23:12:48.742Z,22.47
2022-12-01T23:15:37.023Z,22.00
2022-12-01T23:18:14.873Z,20.90
2022-12-01T23:20:43.770Z,22.73
2022-12-01T23:23:27.849Z,22.27
2022-12-01T23:25:54.567Z,22.30
2022-12-01T23:28:21.225Z,21.00
2022-12-01T23:30:52.672Z,21.93
2022-12-01T23:33:24.832Z,22.67
2022-12-01T23:36:02.149Z,20.97
2022-12-01T23:38:37.215Z,22.33
2022-12-01T23:41:25.449Z,19.17
2022-12-01T23:43:55.135Z,21.20
2022-12-01T23:46:26.600Z,22.30
2022-12-01T23:49:03.019Z,21.90
2022-12-01T23:51:35.074Z,21.03
2022-12-01T23:54:18.146Z,21.23
2022-12-01T23:56:49.818Z,20.40
2022-12-01T23:59:16.431Z,21.20
